Portada
METAR-TAF:

METAR-TAF

Aeroports :

Aeroport Internacional de Xangai-Pudong

Xangai-Pudong, Xina

latitud: 31-07N, longitud: 121-46E, altitud: 4 m

Observació

L'informe es va fer fa 21 minuts, a les 11:00 UTC
Vent 10 kt del Est/Sud-Est
Temperatura 9°C
Humitat 76%
Pressió 1026 hPa
Visibilitat 10 km o més
Cel ennuvolat a una alçada de 2000 ft

METAR: ZSPD 271100Z 11005MPS 9999 BKN020 09/05 Q1026 NOSIG

Hora: 19:21 (11:21 UTC)

Pronòstic

L'informe es va fer fa 8 hores i 14 minuts, a les 03:07 UTC
Pronòstic vàlid del 27 a les 06 UTC al 28 a les 06 UTC
Vent 8 kt del Est/Nord-Est
Visibilitat: 6000 m
Cel ennuvolat a una alçada de 1300 ft
Evolucionant progressivament
l' 27 a les 13 UTC al 27 a les 14 UTC
Vent 8 kt del Sud-Est

TAF: ZSPD 270307Z 2706/2806 06004MPS 6000 BKN013 TX13/2706Z TN07/2721Z BECMG 2713/2714 14004MPS

Observacions i pronòstics meteorològics de més de 4000 aeroports (METAR i TAF).

Les estacions disponibles són els punts grocs i vermells al mapa.

Posi el ratolí al punt desitjat per veure el nom de l'estació.

Feu clic per veure les observacions i els pronòstics meteorològics.

Per canviar el mapa: feu clic els botons verds amb una creu de color negre per apropar; al botó verd amb un guió per allunyar la imatge; o en les fletxes verdes per a mapes adjacents.


METAR-TAF: